Terminal Aerodrome Forecast
Issued by NWS

Home | Current Version | Previous Version | Text Only | Print | Product List | Glossary On
Versions: 1 2 3 4 5 6 7 8 9 10 11 12 13 14 15 16 17
769
FTUS44 KSJT 262322
TAFSOA
TAF
KSOA 262322Z 2700/2724 18005KT P6SM SCT250
     FM271000 36008G16KT P6SM SKC
     FM271300 02005KT P6SM SKC=

USA.gov is the U.S. government's official web portal to all federal, state and local government web resources and services.